Time;durP1;ratioP1;P1;durP2;ratioP2;P2;SDS_P1;SDS_P2;PMS_P1;PMS_P2;Temp;Humidity;BMP_temperature;BMP_pressure;BME280_temperature;BME280_humidity;BME280_pressure;Samples;Min_cycle;Max_cycle;Signal;HPM_P1;HPM_P2
2022/09/12 00:00:19;;;;;;;9.60;8.60;;;;;;;13.96;100.00;154945.66;5071508;28;20434;-84
2022/09/12 00:02:46;;;;;;;9.47;8.47;;;;;;;13.92;100.00;154936.59;5070721;28;20515;-84
2022/09/12 00:05:14;;;;;;;9.13;8.07;;;;;;;13.89;100.00;154928.81;5059577;28;20451;-84
2022/09/12 00:07:41;;;;;;;9.97;7.67;;;;;;;13.85;100.00;154918.38;5050451;28;20514;-83
2022/09/12 00:10:08;;;;;;;9.47;8.57;;;;;;;13.82;100.00;154910.59;5067196;28;20437;-84
2022/09/12 00:12:34;;;;;;;10.50;8.60;;;;;;;13.81;100.00;154908.03;5070151;28;20442;-83
2022/09/12 00:15:01;;;;;;;10.50;9.47;;;;;;;13.79;100.00;154901.53;5073553;28;20422;-83
2022/09/12 00:17:28;;;;;;;10.20;9.10;;;;;;;13.75;100.00;154892.44;5057943;28;20449;-83
2022/09/12 00:19:54;;;;;;;10.80;9.37;;;;;;;13.73;100.00;154887.25;5075085;28;20516;-83
2022/09/12 00:22:22;;;;;;;10.13;9.07;;;;;;;13.71;100.00;154882.06;5073859;28;20506;-83
2022/09/12 00:24:49;;;;;;;10.73;9.63;;;;;;;13.70;100.00;154878.16;5074313;28;20434;-83
2022/09/12 00:27:16;;;;;;;9.30;8.40;;;;;;;13.65;100.00;154865.19;5076250;28;20441;-83
2022/09/12 00:29:43;;;;;;;10.50;9.40;;;;;;;13.61;100.00;154854.81;5057287;28;20434;-84
2022/09/12 00:32:09;;;;;;;10.87;9.10;;;;;;;13.59;100.00;154849.59;5074840;28;20472;-83
2022/09/12 00:34:36;;;;;;;10.17;9.17;;;;;;;13.58;100.00;154848.28;5075267;28;20434;-83
2022/09/12 00:37:03;;;;;;;10.50;9.00;;;;;;;13.56;100.00;154841.78;5074490;28;20851;-83
2022/09/12 00:39:31;;;;;;;11.20;10.10;;;;;;;13.55;100.00;154840.53;5074148;28;20438;-83
2022/09/12 00:41:58;;;;;;;11.60;10.37;;;;;;;13.55;100.00;154839.22;5073911;28;20477;-83
2022/09/12 00:44:46;;;;;;;11.77;10.00;;;;;;;13.51;100.00;154830.13;5074500;28;20534;-83
2022/09/12 00:47:17;;;;;;;12.23;9.53;;;;;;;13.52;100.00;154832.75;5075036;28;20515;-83
2022/09/12 00:49:46;;;;;;;10.50;9.40;;;;;;;13.49;100.00;154823.66;5074510;28;20473;-83
2022/09/12 00:52:15;;;;;;;12.40;11.10;;;;;;;13.51;100.00;154828.81;5074226;28;20456;-83
2022/09/12 00:54:46;;;;;;;11.20;9.93;;;;;;;13.48;100.00;154821.03;5075958;28;20516;-83
2022/09/12 00:57:14;;;;;;;12.90;9.50;;;;;;;13.41;100.00;154805.50;5069787;28;20541;-84
2022/09/12 00:59:44;;;;;;;11.07;9.97;;;;;;;13.39;100.00;154800.31;5070525;28;20504;-83
2022/09/12 01:02:11;;;;;;;10.77;9.67;;;;;;;13.33;100.00;154784.72;5070265;28;20485;-84
2022/09/12 01:04:39;;;;;;;10.67;9.50;;;;;;;13.28;100.00;154771.75;5074101;28;21039;-84
2022/09/12 01:07:06;;;;;;;10.87;9.73;;;;;;;13.26;100.00;154766.53;5057740;28;20793;-83
2022/09/12 01:09:33;;;;;;;13.53;11.57;;;;;;;13.26;100.00;154765.28;5068229;28;20533;-83
2022/09/12 01:12:02;;;;;;;15.63;9.90;;;;;;;13.24;100.00;154761.34;5074958;28;20434;-83
2022/09/12 01:14:30;;;;;;;11.83;10.40;;;;;;;13.24;100.00;154760.03;5072748;28;20438;-83
2022/09/12 01:16:56;;;;;;;14.03;10.47;;;;;;;13.23;100.00;154758.78;5074072;28;20457;-83
2022/09/12 01:19:46;;;;;;;11.40;10.20;;;;;;;13.21;100.00;154752.31;5073173;28;20444;-83
2022/09/12 01:22:25;;;;;;;14.77;10.40;;;;;;;13.23;100.00;154757.47;5071961;28;20847;-83
2022/09/12 01:24:54;;;;;;;12.00;10.70;;;;;;;13.20;100.00;154751.00;5074050;28;20445;-83
2022/09/12 01:27:32;;;;;;;12.80;10.77;;;;;;;13.22;100.00;154756.19;5073058;28;20476;-83
2022/09/12 01:30:35;;;;;;;15.90;11.90;;;;;;;13.20;100.00;154751.00;5058314;28;20423;-83
2022/09/12 01:33:21;;;;;;;12.70;10.80;;;;;;;13.19;100.00;154747.06;5054858;28;20441;-83
2022/09/12 01:35:56;;;;;;;12.37;10.90;;;;;;;13.15;100.00;154738.03;5058673;28;20746;-83
2022/09/12 01:38:27;;;;;;;11.40;9.57;;;;;;;13.15;100.00;154736.72;5055491;28;20838;-83
2022/09/12 01:41:01;;;;;;;11.63;9.93;;;;;;;13.12;100.00;154730.22;5073786;28;21124;-83
2022/09/12 01:43:33;;;;;;;12.10;10.73;;;;;;;13.12;100.00;154730.22;5074789;28;20853;-83
2022/09/12 01:46:06;;;;;;;14.10;10.67;;;;;;;13.08;100.00;154718.56;5073243;28;20437;-83
2022/09/12 01:48:35;;;;;;;13.77;11.70;;;;;;;13.10;100.00;154723.75;5074527;28;20441;-83
2022/09/12 01:51:07;;;;;;;10.80;9.60;;;;;;;13.05;100.00;154712.00;5073717;28;20960;-83
2022/09/12 01:53:38;;;;;;;13.90;10.87;;;;;;;13.03;100.00;154706.81;5073274;28;20438;-83
2022/09/12 01:56:09;;;;;;;13.37;10.67;;;;;;;13.03;100.00;154706.81;5067870;28;20523;-83
2022/09/12 01:58:44;;;;;;;12.93;10.73;;;;;;;13.02;100.00;154704.25;5055467;28;20479;-83
2022/09/12 02:01:15;;;;;;;14.90;11.17;;;;;;;13.01;100.00;154700.31;5072878;28;20553;-83
2022/09/12 02:03:44;;;;;;;10.87;9.73;;;;;;;12.96;100.00;154688.66;5074329;28;20496;-83
2022/09/12 02:06:17;;;;;;;13.80;10.03;;;;;;;12.95;100.00;154684.75;5074764;28;20755;-83
2022/09/12 02:08:47;;;;;;;10.97;9.87;;;;;;;12.94;100.00;154683.50;5074370;28;20440;-83
2022/09/12 02:11:14;;;;;;;10.30;9.30;;;;;;;12.95;100.00;154684.75;5073698;28;20414;-83
2022/09/12 02:13:43;;;;;;;11.17;9.03;;;;;;;12.94;100.00;154682.19;5063430;28;20457;-83
2022/09/12 02:16:15;;;;;;;11.17;9.97;;;;;;;12.87;100.00;154664.03;5060195;28;20446;-83
2022/09/12 02:18:45;;;;;;;10.43;9.07;;;;;;;12.82;100.00;154653.63;5071332;28;20453;-83
2022/09/12 02:21:12;;;;;;;12.20;10.27;;;;;;;12.78;100.00;154641.97;5071540;28;20929;-83
2022/09/12 02:23:42;;;;;;;12.20;10.00;;;;;;;12.78;100.00;154641.97;5072059;28;20581;-83
2022/09/12 02:26:13;;;;;;;12.37;10.30;;;;;;;12.73;100.00;154629.00;5071507;28;20466;-83
2022/09/12 02:28:42;;;;;;;13.43;9.87;;;;;;;12.68;100.00;154616.03;5071837;28;20479;-85
2022/09/12 02:31:17;;;;;;;10.90;9.77;;;;;;;12.69;100.00;154618.63;5055195;28;20434;-84
2022/09/12 02:33:49;;;;;;;10.57;9.33;;;;;;;12.66;100.00;154610.81;5072040;28;20437;-84
2022/09/12 02:36:23;;;;;;;9.67;8.73;;;;;;;12.66;100.00;154610.81;5071780;28;20446;-84
2022/09/12 02:38:50;;;;;;;11.43;10.23;;;;;;;12.64;100.00;154605.66;5059672;28;20433;-84
2022/09/12 02:41:18;;;;;;;11.43;9.30;;;;;;;12.60;100.00;154595.28;5071275;28;20446;-85
2022/09/12 02:43:45;;;;;;;11.00;9.90;;;;;;;12.61;100.00;154597.84;5073667;28;20820;-84
2022/09/12 02:46:18;;;;;;;10.67;9.57;;;;;;;12.61;100.00;154597.84;5073293;28;20442;-84
2022/09/12 02:48:45;;;;;;;10.70;9.63;;;;;;;12.62;100.00;154600.47;5072048;28;20937;-84
2022/09/12 02:51:12;;;;;;;12.03;10.77;;;;;;;12.59;100.00;154592.69;5072630;28;20499;-85
2022/09/12 02:53:39;;;;;;;13.13;10.93;;;;;;;12.58;100.00;154590.06;5072494;28;20509;-85
2022/09/12 02:56:08;;;;;;;11.33;10.13;;;;;;;12.56;100.00;154584.91;5070972;28;20440;-85
2022/09/12 02:58:35;;;;;;;14.13;10.13;;;;;;;12.55;100.00;154582.34;5071858;28;20449;-85
2022/09/12 03:01:08;;;;;;;11.40;10.20;;;;;;;12.51;100.00;154571.94;5072838;28;20478;-85
2022/09/12 03:04:08;;;;;;;11.90;10.50;;;;;;;12.51;100.00;154571.94;5073653;28;20470;-85
2022/09/12 03:06:39;;;;;;;13.20;11.30;;;;;;;12.45;100.00;154556.34;5072478;28;20438;-85
2022/09/12 03:09:10;;;;;;;11.53;9.43;;;;;;;12.44;100.00;154555.09;5072484;28;20433;-85
2022/09/12 03:11:55;;;;;;;11.83;10.63;;;;;;;12.42;100.00;154548.56;5071499;28;20422;-85
2022/09/12 03:14:31;;;;;;;13.27;9.90;;;;;;;12.39;100.00;154542.09;5066584;28;20473;-85
2022/09/12 03:17:07;;;;;;;11.70;10.47;;;;;;;12.36;100.00;154534.34;5071568;28;20430;-85
2022/09/12 03:19:41;;;;;;;10.23;9.00;;;;;;;12.39;100.00;154540.84;5072193;28;20409;-85
2022/09/12 03:22:11;;;;;;;13.97;10.70;;;;;;;12.36;100.00;154534.34;5072436;28;20430;-85
2022/09/12 03:24:42;;;;;;;12.77;10.87;;;;;;;12.37;100.00;154535.59;5071927;28;20434;-85
2022/09/12 03:27:12;;;;;;;14.23;11.33;;;;;;;12.36;100.00;154533.03;5071844;28;20454;-85
2022/09/12 03:29:40;;;;;;;12.77;11.33;;;;;;;12.31;100.00;154520.09;5072400;28;20419;-85
2022/09/12 03:32:07;;;;;;;12.17;10.67;;;;;;;12.35;100.00;154530.44;5073126;28;20499;-85
2022/09/12 03:34:33;;;;;;;13.97;11.70;;;;;;;12.32;100.00;154522.66;5078084;28;20438;-85
2022/09/12 03:37:02;;;;;;;12.40;11.10;;;;;;;12.32;100.00;154523.94;5072450;28;20575;-85
2022/09/12 03:39:28;;;;;;;15.03;12.27;;;;;;;12.33;100.00;154525.25;5064261;28;20451;-85
2022/09/12 03:41:56;;;;;;;12.40;10.43;;;;;;;12.32;100.00;154523.94;5064913;28;20987;-85
2022/09/12 03:44:22;;;;;;;12.93;11.17;;;;;;;12.29;100.00;154514.84;5071706;28;20501;-85
2022/09/12 03:46:49;;;;;;;14.37;11.37;;;;;;;12.26;100.00;154507.13;5053621;28;20438;-85
2022/09/12 03:49:16;;;;;;;13.60;11.70;;;;;;;12.24;100.00;154503.19;5070131;28;20436;-85
2022/09/12 03:51:43;;;;;;;14.03;11.30;;;;;;;12.23;100.00;154499.34;5071666;28;20473;-85
2022/09/12 03:54:11;;;;;;;12.60;10.83;;;;;;;12.22;100.00;154498.03;5071906;28;20495;-85
2022/09/12 03:56:39;;;;;;;11.87;10.53;;;;;;;12.20;100.00;154494.13;5070399;28;20450;-85
2022/09/12 03:59:06;;;;;;;14.27;12.73;;;;;;;12.21;100.00;154496.72;5070147;28;20439;-85
2022/09/12 04:01:33;;;;;;;14.37;12.87;;;;;;;12.20;100.00;154494.13;5070358;28;20479;-85
2022/09/12 04:04:00;;;;;;;15.63;12.40;;;;;;;12.21;100.00;154496.72;5071243;28;20465;-85
2022/09/12 04:06:27;;;;;;;12.37;10.77;;;;;;;12.22;100.00;154498.03;5068024;28;20456;-85
2022/09/12 04:08:54;;;;;;;13.27;11.87;;;;;;;12.20;100.00;154494.13;5085193;28;20533;-85
2022/09/12 04:11:23;;;;;;;14.13;12.07;;;;;;;12.17;100.00;154486.38;5069868;28;20438;-85
2022/09/12 04:13:51;;;;;;;13.87;11.53;;;;;;;12.15;100.00;154481.16;5069772;28;20466;-85
2022/09/12 04:16:19;;;;;;;14.90;13.20;;;;;;;12.16;100.00;154483.78;5033735;28;20487;-85
2022/09/12 04:18:50;;;;;;;14.20;11.90;;;;;;;12.18;100.00;154488.94;5061024;28;20461;-85
2022/09/12 04:21:19;;;;;;;14.33;11.80;;;;;;;12.16;100.00;154483.78;5053079;28;20473;-85
2022/09/12 04:23:45;;;;;;;14.90;11.53;;;;;;;12.13;100.00;154474.66;5069569;28;20830;-85
2022/09/12 04:26:13;;;;;;;13.60;11.73;;;;;;;12.12;100.00;154473.41;5071425;28;20437;-85
2022/09/12 04:28:42;;;;;;;14.40;11.67;;;;;;;12.14;100.00;154477.28;5070008;28;20453;-85
2022/09/12 04:31:12;;;;;;;15.67;13.73;;;;;;;12.13;100.00;154475.97;5071539;28;20947;-85
2022/09/12 04:33:39;;;;;;;15.60;12.57;;;;;;;12.16;100.00;154482.47;5054566;28;20521;-85
2022/09/12 04:36:08;;;;;;;17.70;13.07;;;;;;;12.15;100.00;154481.16;5071670;28;20509;-85
2022/09/12 04:38:36;;;;;;;17.10;12.00;;;;;;;12.15;100.00;154479.91;5069331;28;20479;-85
2022/09/12 04:41:10;;;;;;;13.57;11.57;;;;;;;12.12;100.00;154473.41;5057653;28;20497;-85
2022/09/12 04:43:37;;;;;;;13.00;11.20;;;;;;;12.10;100.00;154468.19;5050040;28;20510;-85
2022/09/12 04:46:06;;;;;;;15.10;11.47;;;;;;;12.09;100.00;154464.31;5055832;28;20457;-85
2022/09/12 04:48:33;;;;;;;18.50;14.00;;;;;;;12.06;100.00;154456.53;5071444;28;20437;-85
2022/09/12 04:51:07;;;;;;;14.23;10.40;;;;;;;12.04;100.00;154452.69;5070230;28;20473;-85
2022/09/12 04:53:34;;;;;;;11.93;10.73;;;;;;;12.04;100.00;154452.69;5069985;28;20442;-85
2022/09/12 04:56:02;;;;;;;14.60;12.87;;;;;;;12.05;100.00;154455.25;5070046;28;20557;-85
2022/09/12 04:58:29;;;;;;;12.17;10.87;;;;;;;12.08;100.00;154461.72;5068951;28;20445;-86
2022/09/12 05:00:55;;;;;;;14.80;11.93;;;;;;;12.06;100.00;154457.84;5069201;28;20449;-85
2022/09/12 05:03:23;;;;;;;15.93;12.17;;;;;;;12.04;100.00;154452.69;5074059;28;20568;-86
2022/09/12 05:05:50;;;;;;;13.57;11.23;;;;;;;11.99;100.00;154438.41;5073188;28;20453;-85
2022/09/12 05:08:16;;;;;;;13.47;11.80;;;;;;;11.99;100.00;154439.66;5075139;28;20433;-84
2022/09/12 05:10:43;;;;;;;13.73;11.20;;;;;;;12.02;100.00;154447.44;5052088;28;20449;-85
2022/09/12 05:13:10;;;;;;;14.57;12.67;;;;;;;12.02;100.00;154446.19;5069353;28;20460;-85
2022/09/12 05:15:36;;;;;;;13.67;12.23;;;;;;;12.01;100.00;154443.59;5063600;28;20442;-85
2022/09/12 05:18:03;;;;;;;14.93;13.00;;;;;;;12.02;100.00;154447.44;5071951;28;20457;-85
2022/09/12 05:20:32;;;;;;;15.03;12.03;;;;;;;11.99;100.00;154439.66;5056953;28;20438;-85
2022/09/12 05:23:00;;;;;;;15.07;13.03;;;;;;;11.98;100.00;154435.81;5073942;28;20835;-85
2022/09/12 05:25:27;;;;;;;15.97;12.73;;;;;;;12.01;100.00;154444.91;5071337;28;20446;-85
2022/09/12 05:27:53;;;;;;;14.83;13.17;;;;;;;12.06;100.00;154456.53;5075082;28;20453;-85
2022/09/12 05:30:20;;;;;;;14.43;12.93;;;;;;;12.06;100.00;154456.53;5078553;28;20798;-85
2022/09/12 05:32:47;;;;;;;18.73;14.30;;;;;;;12.08;100.00;154463.03;5075487;28;20454;-85
2022/09/12 05:35:13;;;;;;;15.70;13.50;;;;;;;12.12;100.00;154472.13;5071692;28;20825;-86
2022/09/12 05:37:43;;;;;;;17.87;12.87;;;;;;;12.12;100.00;154472.13;5072795;28;20454;-86
2022/09/12 05:40:09;;;;;;;18.23;13.93;;;;;;;12.15;100.00;154481.16;5070225;28;20431;-86
2022/09/12 05:42:36;;;;;;;17.47;13.40;;;;;;;12.20;100.00;154492.84;5072251;28;20450;-85
2022/09/12 05:45:03;;;;;;;15.80;12.87;;;;;;;12.23;100.00;154500.66;5070049;28;20803;-85
2022/09/12 05:47:30;;;;;;;15.10;12.57;;;;;;;12.22;100.00;154498.03;5070781;28;20465;-86
2022/09/12 05:49:57;;;;;;;16.50;14.03;;;;;;;12.27;100.00;154509.69;5071194;28;20577;-85
2022/09/12 05:52:25;;;;;;;14.83;12.73;;;;;;;12.32;100.00;154522.66;5069534;28;20454;-86
2022/09/12 05:54:53;;;;;;;16.03;12.20;;;;;;;12.34;100.00;154527.88;5071463;28;20473;-86
2022/09/12 05:57:19;;;;;;;15.30;12.70;;;;;;;12.41;100.00;154546.00;5062429;28;20940;-86
2022/09/12 05:59:47;;;;;;;15.33;13.60;;;;;;;12.52;100.00;154574.53;5052763;28;20434;-86
2022/09/12 06:02:14;;;;;;;16.83;13.77;;;;;;;12.76;100.00;154638.06;5061914;28;20454;-86
2022/09/12 06:04:41;;;;;;;18.03;14.57;;;;;;;13.10;100.00;154725.06;5070966;28;20477;-86
2022/09/12 06:07:08;;;;;;;18.70;13.93;;;;;;;13.50;100.00;154826.25;5070462;28;20450;-86
2022/09/12 06:09:34;;;;;;;15.80;14.13;;;;;;;13.81;100.00;154906.72;5054128;28;20959;-86
2022/09/12 06:12:03;;;;;;;17.17;12.53;;;;;;;14.06;100.00;154971.59;5071571;28;20458;-86
2022/09/12 06:14:29;;;;;;;16.40;13.73;;;;;;;14.30;100.00;155033.94;5067171;28;20927;-86
2022/09/12 06:16:56;;;;;;;16.40;12.53;;;;;;;14.57;100.00;155104.13;5071174;28;20750;-86
2022/09/12 06:19:23;;;;;;;14.70;12.60;;;;;;;14.87;100.00;155180.78;5073294;28;20873;-86
2022/09/12 06:21:51;;;;;;;14.40;12.90;;;;;;;15.08;100.00;155235.34;5071668;28;20458;-85
2022/09/12 06:24:19;;;;;;;15.77;12.53;;;;;;;15.39;100.00;155313.28;5071304;28;20596;-85
2022/09/12 06:26:46;;;;;;;14.23;12.80;;;;;;;15.57;100.00;155361.44;5071733;28;21004;-85
2022/09/12 06:29:14;;;;;;;13.97;12.57;;;;;;;15.73;100.00;155403.03;5069155;28;20437;-86
2022/09/12 06:31:42;;;;;;;13.30;12.00;;;;;;;15.92;100.00;155449.81;5068540;28;20473;-85
2022/09/12 06:34:11;;;;;;;14.63;13.13;;;;;;;16.13;100.00;155504.44;5070485;28;20504;-86
2022/09/12 06:36:39;;;;;;;15.23;13.07;;;;;;;16.41;100.00;155577.28;5071171;28;20458;-86
2022/09/12 06:39:07;;;;;;;13.17;11.87;;;;;;;16.56;98.08;155616.34;5068490;28;20485;-85
2022/09/12 06:41:34;;;;;;;14.77;12.13;;;;;;;16.85;97.35;155691.81;5054136;28;20454;-85
2022/09/12 06:44:02;;;;;;;11.70;10.53;;;;;;;17.18;96.22;155775.09;5071397;28;20473;-85
2022/09/12 06:46:30;;;;;;;12.00;10.77;;;;;;;17.47;94.99;155850.56;5072113;28;20537;-85
2022/09/12 06:48:58;;;;;;;12.13;10.87;;;;;;;17.81;92.56;155939.16;5070654;28;20458;-86
2022/09/12 06:51:25;;;;;;;11.10;10.10;;;;;;;17.98;87.69;155982.06;5071254;28;20821;-85
2022/09/12 06:53:54;;;;;;;10.70;9.70;;;;;;;18.20;88.61;156039.38;5069931;28;20441;-85
2022/09/12 06:56:22;;;;;;;10.53;9.53;;;;;;;18.48;86.95;156111.09;5069634;28;20885;-85
2022/09/12 06:58:50;;;;;;;9.30;8.40;;;;;;;18.80;85.00;156195.75;5065601;28;20456;-85
2022/09/12 07:01:19;;;;;;;9.60;8.60;;;;;;;19.01;83.69;156249.16;5064219;28;20442;-85
2022/09/12 07:03:49;;;;;;;14.00;10.10;;;;;;;19.24;82.39;156309.13;5050037;28;20467;-85
2022/09/12 07:06:17;;;;;;;10.87;9.77;;;;;;;19.54;81.20;156384.78;5067545;28;20457;-83
2022/09/12 07:08:44;;;;;;;11.40;10.03;;;;;;;19.79;80.54;156449.94;5066474;28;20457;-84
2022/09/12 07:11:13;;;;;;;11.17;10.07;;;;;;;19.81;79.88;156455.16;5067566;28;20449;-84
2022/09/12 07:13:40;;;;;;;10.97;9.87;;;;;;;20.07;78.93;156522.94;5068455;28;20532;-84
2022/09/12 07:16:07;;;;;;;9.47;8.57;;;;;;;20.00;76.89;156506.03;5070497;28;20438;-84
2022/09/12 07:18:34;;;;;;;9.97;9.07;;;;;;;20.39;77.03;156605.16;5052851;28;20465;-84
2022/09/12 07:21:03;;;;;;;9.20;8.30;;;;;;;20.61;76.09;156663.91;5070604;28;20452;-84
2022/09/12 07:23:31;;;;;;;9.73;8.73;;;;;;;20.80;74.49;156712.16;5067844;28;20458;-84
2022/09/12 07:25:59;;;;;;;9.83;8.10;;;;;;;20.55;72.93;156646.91;5065577;28;20465;-84
2022/09/12 07:28:27;;;;;;;8.60;7.80;;;;;;;20.65;71.88;156674.31;5069156;28;20529;-84
2022/09/12 07:30:55;;;;;;;8.33;7.53;;;;;;;20.77;73.14;156704.34;5060562;28;20869;-84
2022/09/12 07:33:27;;;;;;;7.87;7.17;;;;;;;21.00;72.31;156764.34;5059443;28;20808;-84
2022/09/12 07:35:54;;;;;;;7.70;7.00;;;;;;;21.18;70.39;156810.09;5068692;28;20885;-84
2022/09/12 07:38:22;;;;;;;7.73;7.03;;;;;;;21.26;70.51;156830.94;5052427;28;20469;-85
2022/09/12 07:40:49;;;;;;;7.80;7.10;;;;;;;21.49;69.46;156889.69;5071454;28;20437;-85
2022/09/12 07:43:16;;;;;;;6.90;6.30;;;;;;;21.65;69.22;156931.47;5069395;28;20547;-85
2022/09/12 07:45:43;;;;;;;6.70;6.07;;;;;;;21.68;67.48;156939.31;5068797;28;21032;-84
2022/09/12 07:48:09;;;;;;;7.50;6.50;;;;;;;22.08;68.75;157042.53;5062874;28;20553;-84
2022/09/12 07:50:37;;;;;;;7.17;6.47;;;;;;;22.32;67.36;157106.47;5068061;28;20935;-84
2022/09/12 07:53:04;;;;;;;7.00;6.30;;;;;;;22.60;66.97;157178.34;5066344;28;20481;-84
2022/09/12 07:55:32;;;;;;;7.27;6.63;;;;;;;22.78;65.80;157225.41;5065523;28;20458;-84
2022/09/12 07:57:59;;;;;;;7.77;7.07;;;;;;;22.81;65.11;157233.25;5069002;28;20450;-84
2022/09/12 08:00:26;;;;;;;6.70;6.10;;;;;;;22.91;62.37;157259.38;5070314;28;20556;-84
2022/09/12 08:02:53;;;;;;;7.00;6.30;;;;;;;23.12;62.55;157311.63;5070832;28;20442;-86
2022/09/12 08:05:20;;;;;;;5.70;5.10;;;;;;;22.95;60.98;157269.81;5070638;28;20475;-86
2022/09/12 08:07:48;;;;;;;5.73;5.23;;;;;;;22.98;59.65;157276.41;5068176;28;20870;-86
2022/09/12 08:10:15;;;;;;;5.67;5.17;;;;;;;23.07;60.83;157299.88;5048117;28;20435;-86
2022/09/12 08:12:43;;;;;;;5.90;5.30;;;;;;;23.02;61.72;157286.81;5053698;28;20453;-86
2022/09/12 08:15:10;;;;;;;6.07;5.57;;;;;;;23.20;60.50;157332.53;5068641;28;20500;-86
2022/09/12 08:17:36;;;;;;;6.07;5.50;;;;;;;23.39;60.50;157383.59;5067617;28;20438;-85
2022/09/12 08:20:04;;;;;;;5.80;5.30;;;;;;;23.49;60.19;157409.72;5051114;28;20442;-86
2022/09/12 08:22:31;;;;;;;6.37;5.77;;;;;;;23.58;58.29;157431.97;5061813;28;20458;-85
2022/09/12 08:24:58;;;;;;;5.20;4.70;;;;;;;23.14;60.46;157316.91;5066227;28;20805;-85
2022/09/12 08:27:24;;;;;;;4.67;4.27;;;;;;;23.17;58.29;157326.00;5063688;28;20458;-84
2022/09/12 08:29:54;;;;;;;4.63;4.23;;;;;;;22.83;59.28;157238.47;5054236;28;20449;-85
2022/09/12 08:32:21;;;;;;;4.90;4.50;;;;;;;22.95;59.49;157268.56;5069589;28;20484;-85
2022/09/12 08:34:47;;;;;;;4.83;4.40;;;;;;;22.81;60.72;157233.25;5070500;28;20430;-84
2022/09/12 08:37:14;;;;;;;4.47;4.07;;;;;;;22.90;60.57;157255.50;5071790;28;20458;-84
2022/09/12 08:39:41;;;;;;;4.60;4.20;;;;;;;23.24;60.08;157344.34;5072070;28;20453;-84
2022/09/12 08:42:10;;;;;;;4.80;4.30;;;;;;;23.20;59.76;157332.53;5068513;28;20948;-84
2022/09/12 08:44:53;;;;;;;4.63;4.23;;;;;;;23.28;58.97;157353.47;5074776;28;20825;-84
2022/09/12 08:47:24;;;;;;;4.50;3.83;;;;;;;23.28;59.70;157353.47;5073653;28;20511;-84
2022/09/12 08:49:56;;;;;;;5.00;4.50;;;;;;;22.82;59.67;157234.59;5072496;28;20555;-86
2022/09/12 08:52:26;;;;;;;5.47;5.00;;;;;;;22.40;60.71;157127.38;5073605;28;20449;-86
2022/09/12 08:54:53;;;;;;;4.60;3.70;;;;;;;22.48;59.20;157146.97;5071502;28;20873;-83
2022/09/12 08:57:20;;;;;;;3.70;3.40;;;;;;;22.22;60.17;157079.06;5073452;28;20449;-84
2022/09/12 08:59:47;;;;;;;4.57;4.10;;;;;;;22.13;60.94;157055.56;5054499;28;20435;-83
2022/09/12 09:02:30;;;;;;;5.00;4.50;;;;;;;21.93;61.25;157004.63;5048134;28;20839;-83
2022/09/12 09:05:01;;;;;;;4.13;3.80;;;;;;;21.98;63.14;157016.38;5069209;28;20477;-85
2022/09/12 09:07:53;;;;;;;4.90;3.60;;;;;;;22.19;63.23;157071.22;5068974;28;20457;-85
2022/09/12 09:10:26;;;;;;;4.27;3.97;;;;;;;22.31;61.65;157102.59;5072381;28;20434;-85
2022/09/12 09:13:01;;;;;;;4.60;4.20;;;;;;;22.29;60.85;157098.63;5061613;28;20452;-85
2022/09/12 09:15:40;;;;;;;4.60;4.10;;;;;;;22.27;61.86;157092.13;5072603;28;20522;-86
2022/09/12 09:18:16;;;;;;;4.83;4.10;;;;;;;22.41;59.49;157128.69;5072217;28;20462;-85
2022/09/12 09:20:46;;;;;;;4.57;4.10;;;;;;;22.04;61.88;157033.38;5071343;28;20537;-85
2022/09/12 09:23:16;;;;;;;5.30;4.30;;;;;;;21.74;61.39;156956.25;5062921;28;20464;-85
2022/09/12 09:25:50;;;;;;;4.27;3.90;;;;;;;21.63;63.09;156927.53;5072627;28;20956;-85
2022/09/12 09:28:21;;;;;;;4.67;3.53;;;;;;;21.88;62.26;156990.25;5072903;28;20457;-85
2022/09/12 09:30:48;;;;;;;4.27;3.87;;;;;;;21.73;61.16;156952.38;5073476;28;20438;-85
2022/09/12 09:33:22;;;;;;;3.80;3.40;;;;;;;21.44;62.22;156877.97;5053595;28;20449;-85
2022/09/12 09:35:53;;;;;;;4.10;3.80;;;;;;;21.52;63.12;156897.53;5054052;28;20435;-86
2022/09/12 09:38:24;;;;;;;4.67;4.27;;;;;;;21.55;63.10;156906.66;5064984;28;20562;-85
2022/09/12 09:40:58;;;;;;;4.10;3.80;;;;;;;21.54;63.24;156902.75;5055624;28;20419;-85
2022/09/12 09:43:27;;;;;;;3.90;3.33;;;;;;;21.84;62.99;156982.38;5075392;28;20531;-86
2022/09/12 09:45:55;;;;;;;3.77;3.47;;;;;;;21.97;63.76;157013.78;5061693;28;20481;-85
2022/09/12 09:48:25;;;;;;;3.80;3.27;;;;;;;22.22;60.07;157079.06;5087303;28;20461;-85
2022/09/12 09:50:52;;;;;;;3.70;3.30;;;;;;;22.32;58.64;157105.16;5073916;28;20824;-85
2022/09/12 09:53:27;;;;;;;4.70;4.30;;;;;;;21.92;59.39;157002.03;5072438;28;20463;-85
2022/09/12 09:55:55;;;;;;;4.13;3.70;;;;;;;21.54;61.86;156904.06;5072859;28;20940;-85
2022/09/12 09:58:30;;;;;;;4.27;3.87;;;;;;;21.61;63.21;156921.00;5054166;28;20472;-86
2022/09/12 10:00:59;;;;;;;3.90;3.60;;;;;;;21.83;59.76;156978.47;5072573;28;20452;-85
2022/09/12 10:03:30;;;;;;;3.90;3.10;;;;;;;21.96;58.50;157011.16;5073781;28;20450;-85
2022/09/12 10:05:59;;;;;;;3.80;3.50;;;;;;;21.83;59.59;156979.78;5072885;28;20492;-85
2022/09/12 10:08:27;;;;;;;3.60;3.30;;;;;;;21.74;59.34;156956.25;5073231;28;20537;-85
2022/09/12 10:10:57;;;;;;;4.37;3.67;;;;;;;21.72;59.63;156949.75;5070117;28;20495;-85
2022/09/12 10:13:27;;;;;;;4.40;4.00;;;;;;;21.67;60.47;156936.69;5057775;28;20834;-84
2022/09/12 10:15:58;;;;;;;4.00;3.40;;;;;;;21.78;59.78;156966.75;5073055;28;20414;-84
2022/09/12 10:18:39;;;;;;;3.63;3.33;;;;;;;21.51;59.98;156896.22;5075041;28;20487;-83
2022/09/12 10:21:18;;;;;;;3.63;3.33;;;;;;;21.44;62.16;156877.97;5072066;28;20458;-86
2022/09/12 10:23:46;;;;;;;3.17;2.87;;;;;;;21.73;60.10;156953.69;5071094;28;20461;-83
2022/09/12 10:26:14;;;;;;;3.83;3.33;;;;;;;21.78;59.61;156966.75;5067266;28;20972;-85
2022/09/12 10:28:43;;;;;;;3.93;3.63;;;;;;;21.92;60.30;157000.72;5056437;28;20442;-85
2022/09/12 10:31:13;;;;;;;3.63;3.33;;;;;;;21.83;59.49;156979.78;5072006;28;20438;-85
2022/09/12 10:33:45;;;;;;;3.20;2.97;;;;;;;21.79;59.59;156969.31;5072505;28;20855;-86
2022/09/12 10:36:11;;;;;;;3.10;2.80;;;;;;;22.03;60.02;157030.72;5072993;28;20770;-85
2022/09/12 10:38:38;;;;;;;3.37;3.07;;;;;;;22.15;56.94;157062.09;5065375;28;20520;-86
2022/09/12 10:41:06;;;;;;;3.43;3.13;;;;;;;21.81;56.63;156974.56;5073378;28;20446;-86
2022/09/12 10:43:36;;;;;;;4.30;3.67;;;;;;;21.84;60.34;156982.38;5057790;28;20541;-85
2022/09/12 10:46:21;;;;;;;4.00;3.60;;;;;;;21.73;59.18;156953.69;5067431;28;20484;-83
2022/09/12 10:48:50;;;;;;;4.30;3.90;;;;;;;21.52;60.21;156897.53;5064444;28;20457;-85
2022/09/12 10:51:27;;;;;;;4.13;3.37;;;;;;;21.53;64.45;156900.13;5072230;28;20520;-86
2022/09/12 10:53:55;;;;;;;3.60;3.27;;;;;;;21.73;61.49;156952.38;5073671;28;20425;-86
2022/09/12 10:56:22;;;;;;;3.60;3.30;;;;;;;22.02;56.51;157026.84;5070569;28;20438;-86
2022/09/12 10:59:10;;;;;;;3.10;2.80;;;;;;;22.19;55.38;157071.22;5071704;28;20460;-84
2022/09/12 11:01:40;;;;;;;3.10;2.80;;;;;;;22.11;56.16;157051.63;5073654;28;20485;-86
2022/09/12 11:04:22;;;;;;;3.30;3.00;;;;;;;22.05;57.63;157034.69;5071688;28;20457;-86
2022/09/12 11:07:13;;;;;;;3.10;2.80;;;;;;;22.06;56.86;157038.56;5073477;28;20480;-84
2022/09/12 11:09:44;;;;;;;3.40;2.90;;;;;;;22.13;55.47;157056.88;5071844;28;20442;-86
2022/09/12 11:12:16;;;;;;;2.90;2.60;;;;;;;22.22;54.13;157079.06;5073463;28;20480;-84
2022/09/12 11:14:55;;;;;;;3.10;2.47;;;;;;;21.98;52.70;157016.38;5071848;28;20441;-84
2022/09/12 11:17:28;;;;;;;2.93;2.67;;;;;;;22.18;52.79;157068.63;5067755;28;20460;-82
2022/09/12 11:20:10;;;;;;;3.07;2.60;;;;;;;22.08;52.27;157042.53;5067061;28;20816;-84
2022/09/12 11:22:51;;;;;;;2.83;2.50;;;;;;;21.96;51.84;157011.16;5039966;28;21011;-83